createdAt,value
2022-11-27T00:01:31.250Z,12.60
2022-11-27T00:03:59.037Z,16.15
2022-11-27T00:06:28.998Z,12.45
2022-11-27T00:08:57.995Z,14.75
2022-11-27T00:11:28.496Z,13.87
2022-11-27T00:13:56.570Z,13.60
2022-11-27T00:16:25.147Z,12.65
2022-11-27T00:18:53.325Z,10.70
2022-11-27T00:21:24.370Z,14.23
2022-11-27T00:23:53.292Z,11.53
2022-11-27T00:26:21.910Z,15.05
2022-11-27T00:28:50.410Z,8.98
2022-11-27T00:31:27.210Z,12.10
2022-11-27T00:34:00.751Z,10.75
2022-11-27T00:36:30.350Z,9.93
2022-11-27T00:38:58.358Z,12.80
2022-11-27T00:41:29.354Z,12.40
2022-11-27T00:43:57.759Z,13.90
2022-11-27T00:46:29.448Z,17.15
2022-11-27T00:49:02.080Z,12.97
2022-11-27T00:51:30.799Z,12.57
2022-11-27T00:53:58.906Z,14.80
2022-11-27T00:56:32.384Z,13.38
2022-11-27T00:59:00.379Z,15.25
2022-11-27T01:01:37.307Z,12.90
2022-11-27T01:04:07.084Z,16.42
2022-11-27T01:06:35.063Z,13.32
2022-11-27T01:09:03.032Z,14.35
2022-11-27T01:11:32.578Z,13.35
2022-11-27T01:14:03.134Z,12.57
2022-11-27T01:16:32.251Z,12.88
2022-11-27T01:19:01.519Z,11.25
2022-11-27T01:21:32.242Z,16.58
2022-11-27T01:24:01.114Z,12.82
2022-11-27T01:26:28.736Z,13.23
2022-11-27T01:28:57.679Z,14.98
2022-11-27T01:31:28.943Z,17.25
2022-11-27T01:33:59.265Z,12.27
2022-11-27T01:36:27.833Z,15.30
2022-11-27T01:38:55.245Z,15.43
2022-11-27T01:41:30.679Z,14.70
2022-11-27T01:44:04.114Z,12.85
2022-11-27T01:46:46.627Z,13.23
2022-11-27T01:49:44.935Z,12.95
2022-11-27T01:52:19.081Z,12.80
2022-11-27T01:54:52.598Z,12.68
2022-11-27T01:57:25.048Z,13.50
2022-11-27T01:59:56.131Z,13.65
2022-11-27T02:02:24.070Z,12.43
2022-11-27T02:04:53.774Z,15.10
2022-11-27T02:07:22.014Z,13.50
2022-11-27T02:09:49.634Z,13.62
2022-11-27T02:12:25.567Z,12.37
2022-11-27T02:14:59.181Z,13.85
2022-11-27T02:17:54.542Z,13.57
2022-11-27T02:20:38.198Z,18.67
2022-11-27T02:23:05.511Z,12.23
2022-11-27T02:25:47.422Z,16.48
2022-11-27T02:29:00.024Z,10.10
2022-11-27T02:31:38.852Z,16.70
2022-11-27T02:34:28.905Z,12.65
2022-11-27T02:37:18.275Z,13.20
2022-11-27T02:40:10.822Z,12.93
2022-11-27T02:42:46.190Z,16.58
2022-11-27T02:45:18.943Z,11.27
2022-11-27T02:47:48.480Z,14.18
2022-11-27T02:50:20.888Z,14.30
2022-11-27T02:52:52.261Z,14.32
2022-11-27T02:55:27.091Z,12.65
2022-11-27T02:57:57.903Z,16.23
2022-11-27T03:00:25.508Z,12.48
2022-11-27T03:02:58.163Z,13.13
2022-11-27T03:05:30.475Z,12.00
2022-11-27T03:08:13.834Z,14.05
2022-11-27T03:10:51.054Z,13.37
2022-11-27T03:13:18.842Z,16.35
2022-11-27T03:16:09.897Z,12.50
2022-11-27T03:18:42.937Z,11.63
2022-11-27T03:21:34.073Z,13.50
2022-11-27T03:24:01.650Z,11.47
2022-11-27T03:26:29.516Z,12.57
2022-11-27T03:29:00.235Z,12.30
2022-11-27T03:31:28.532Z,12.48
2022-11-27T03:33:56.870Z,12.52
2022-11-27T03:36:24.263Z,12.07
2022-11-27T03:38:54.198Z,15.65
2022-11-27T03:41:30.754Z,13.55
2022-11-27T03:44:22.799Z,12.75
2022-11-27T03:46:59.377Z,12.20
2022-11-27T03:49:51.795Z,13.20
2022-11-27T03:52:44.285Z,13.52
2022-11-27T03:55:30.318Z,13.40
2022-11-27T03:58:00.851Z,16.27
2022-11-27T04:00:32.227Z,9.32
2022-11-27T04:03:00.105Z,13.83
2022-11-27T04:05:27.951Z,12.48
2022-11-27T04:07:55.484Z,11.35
2022-11-27T04:10:23.222Z,11.88
2022-11-27T04:12:50.702Z,14.05
2022-11-27T04:15:18.263Z,16.57
2022-11-27T04:17:46.272Z,13.15
2022-11-27T04:20:14.761Z,15.15
2022-11-27T04:22:42.509Z,14.13
2022-11-27T04:25:10.222Z,14.40
2022-11-27T04:27:37.615Z,16.00
2022-11-27T04:30:05.529Z,12.77
2022-11-27T04:32:33.227Z,12.88
2022-11-27T04:35:00.663Z,12.52
2022-11-27T04:37:28.087Z,12.98
2022-11-27T04:39:55.772Z,13.63
2022-11-27T04:42:23.449Z,13.15
2022-11-27T04:44:51.139Z,12.77
2022-11-27T04:47:18.916Z,12.70
2022-11-27T04:49:46.350Z,11.63
2022-11-27T04:52:13.851Z,13.13
2022-11-27T04:54:41.856Z,11.77
2022-11-27T04:57:09.419Z,12.52
2022-11-27T04:59:38.053Z,12.50
2022-11-27T05:02:05.790Z,13.05
2022-11-27T05:04:33.414Z,10.30
2022-11-27T05:07:00.823Z,12.35
2022-11-27T05:09:28.570Z,12.07
2022-11-27T05:11:56.050Z,11.65
2022-11-27T05:14:29.199Z,10.55
2022-11-27T05:16:58.869Z,11.60
2022-11-27T05:19:28.321Z,16.00
2022-11-27T05:21:56.520Z,10.88
2022-11-27T05:24:27.333Z,16.27
2022-11-27T05:26:56.021Z,10.32
2022-11-27T05:29:24.745Z,13.33
2022-11-27T05:31:52.912Z,9.57
2022-11-27T05:34:20.567Z,14.02
2022-11-27T05:36:48.331Z,14.95
2022-11-27T05:39:16.032Z,12.05
2022-11-27T05:41:43.871Z,12.70
2022-11-27T05:44:13.924Z,13.02
2022-11-27T05:46:43.899Z,12.05
2022-11-27T05:49:16.100Z,11.00
2022-11-27T05:51:50.497Z,13.07
2022-11-27T05:54:19.559Z,12.47
2022-11-27T05:56:47.003Z,11.38
2022-11-27T05:59:15.066Z,11.98
2022-11-27T06:01:43.290Z,11.35
2022-11-27T06:04:11.087Z,9.40
2022-11-27T06:06:38.569Z,10.40
2022-11-27T06:09:12.261Z,11.85
2022-11-27T06:11:42.156Z,10.32
2022-11-27T06:14:10.644Z,12.27
2022-11-27T06:16:38.724Z,13.80
2022-11-27T06:19:07.778Z,12.87
2022-11-27T06:21:35.317Z,12.13
2022-11-27T06:24:03.319Z,12.93
2022-11-27T06:26:33.246Z,10.80
2022-11-27T06:29:01.333Z,11.25
2022-11-27T06:31:31.492Z,9.77
2022-11-27T06:33:59.889Z,12.70
2022-11-27T06:36:35.522Z,12.00
2022-11-27T06:39:05.410Z,10.68
2022-11-27T06:41:33.488Z,12.75
2022-11-27T06:44:02.094Z,10.47
2022-11-27T06:46:30.250Z,15.27
2022-11-27T06:48:59.000Z,14.00
2022-11-27T06:51:29.194Z,12.20
2022-11-27T06:53:59.122Z,12.63
2022-11-27T06:56:28.519Z,9.10
2022-11-27T06:58:58.866Z,9.38
2022-11-27T07:01:28.305Z,8.75
2022-11-27T07:03:56.475Z,9.65
2022-11-27T07:06:25.911Z,10.68
2022-11-27T07:08:54.436Z,9.10
2022-11-27T07:11:27.426Z,12.35
2022-11-27T07:13:57.353Z,10.57
2022-11-27T07:16:25.816Z,11.23
2022-11-27T07:18:56.198Z,10.48
2022-11-27T07:21:24.939Z,12.50
2022-11-27T07:23:54.500Z,14.65
2022-11-27T07:26:26.714Z,11.12
2022-11-27T07:28:55.188Z,13.43
2022-11-27T07:31:26.603Z,11.52
2022-11-27T07:33:55.293Z,12.33
2022-11-27T07:36:25.083Z,11.43
2022-11-27T07:38:52.501Z,14.50
2022-11-27T07:41:20.629Z,10.35
2022-11-27T07:43:48.217Z,10.90
2022-11-27T07:46:22.147Z,11.30
2022-11-27T07:48:50.158Z,8.68
2022-11-27T07:51:20.593Z,11.32
2022-11-27T07:53:51.686Z,9.63
2022-11-27T07:56:20.368Z,10.52
2022-11-27T07:58:48.205Z,11.57
2022-11-27T08:01:18.182Z,7.25
2022-11-27T08:03:46.646Z,11.88
2022-11-27T08:06:19.334Z,10.75
2022-11-27T08:08:48.237Z,10.30
2022-11-27T08:11:22.695Z,15.87
2022-11-27T08:13:51.370Z,17.90
2022-11-27T08:16:18.938Z,19.05
2022-11-27T08:18:46.510Z,14.77
2022-11-27T08:21:14.602Z,12.85
2022-11-27T08:23:42.050Z,13.10
2022-11-27T08:26:10.583Z,9.82
2022-11-27T08:28:38.519Z,11.15
2022-11-27T08:31:08.036Z,12.18
2022-11-27T08:33:35.970Z,11.73
2022-11-27T08:36:06.027Z,10.00
2022-11-27T08:38:34.783Z,10.82
2022-11-27T08:41:04.504Z,12.18
2022-11-27T08:43:32.614Z,12.37
2022-11-27T08:46:03.033Z,10.02
2022-11-27T08:48:30.481Z,9.80
2022-11-27T08:50:58.993Z,12.88
2022-11-27T08:53:26.676Z,14.75
2022-11-27T08:55:54.086Z,10.13
2022-11-27T08:58:21.810Z,11.18
2022-11-27T09:00:49.336Z,15.33
2022-11-27T09:03:16.803Z,9.68
2022-11-27T09:05:44.916Z,10.93
2022-11-27T09:08:16.482Z,13.80
2022-11-27T09:10:44.225Z,15.93
2022-11-27T09:13:11.698Z,10.47
2022-11-27T09:15:39.104Z,11.02
2022-11-27T09:18:06.928Z,10.20
2022-11-27T09:20:34.598Z,12.00
2022-11-27T09:23:02.606Z,12.80
2022-11-27T09:25:30.321Z,12.07
2022-11-27T09:27:57.749Z,14.45
2022-11-27T09:30:25.197Z,12.80
2022-11-27T09:32:53.138Z,12.20
2022-11-27T09:35:21.109Z,17.37
2022-11-27T09:37:48.621Z,10.43
2022-11-27T09:40:17.755Z,10.45
2022-11-27T09:42:59.842Z,15.05
2022-11-27T09:45:27.635Z,10.85
2022-11-27T09:47:59.289Z,15.57
2022-11-27T09:50:39.867Z,10.43
2022-11-27T09:53:32.806Z,9.65
2022-11-27T09:56:04.716Z,11.18
2022-11-27T09:58:44.066Z,13.07
2022-11-27T10:01:13.538Z,12.40
2022-11-27T10:03:43.290Z,12.20
2022-11-27T10:06:40.126Z,10.45
2022-11-27T10:09:23.070Z,14.70
2022-11-27T10:12:14.496Z,16.25
2022-11-27T10:14:42.339Z,11.98
2022-11-27T10:17:20.507Z,9.93
2022-11-27T10:20:10.135Z,11.07
2022-11-27T10:22:44.314Z,10.60
2022-11-27T10:25:20.453Z,11.80
2022-11-27T10:28:11.178Z,11.95
2022-11-27T10:30:47.826Z,12.97
2022-11-27T10:33:20.315Z,11.32
2022-11-27T10:35:49.811Z,9.93
2022-11-27T10:38:23.675Z,14.43
2022-11-27T10:41:47.554Z,12.80
2022-11-27T10:44:38.770Z,14.00
2022-11-27T10:47:11.172Z,13.27
2022-11-27T10:49:41.804Z,13.65
2022-11-27T10:52:14.065Z,13.43
2022-11-27T10:54:43.593Z,13.60
2022-11-27T10:57:20.728Z,13.23
2022-11-27T11:00:06.393Z,13.75
2022-11-27T11:02:37.265Z,13.18
2022-11-27T11:08:18.015Z,10.60
2022-11-27T11:10:58.671Z,16.13
2022-11-27T11:13:42.817Z,16.12
2022-11-27T11:16:24.748Z,12.73
2022-11-27T11:18:55.501Z,14.90
2022-11-27T11:21:26.487Z,11.45
2022-11-27T11:24:10.677Z,13.37
2022-11-27T11:26:41.238Z,10.65
2022-11-27T11:29:30.412Z,14.85
2022-11-27T11:32:03.683Z,12.13
2022-11-27T11:34:31.865Z,12.40
2022-11-27T11:37:18.119Z,12.10
2022-11-27T11:39:52.842Z,14.73
2022-11-27T11:42:29.038Z,13.95
2022-11-27T11:45:18.293Z,12.77
2022-11-27T11:47:47.808Z,11.65
2022-11-27T11:50:36.588Z,14.03
2022-11-27T11:53:38.059Z,15.00
2022-11-27T11:56:23.786Z,10.20
2022-11-27T11:58:56.883Z,12.55
2022-11-27T12:01:43.546Z,11.90
2022-11-27T12:04:20.831Z,10.33
2022-11-27T12:07:15.446Z,14.07
2022-11-27T12:09:54.205Z,13.85
2022-11-27T12:12:31.385Z,11.93
2022-11-27T12:15:37.740Z,15.05
2022-11-27T12:18:19.157Z,11.43
2022-11-27T12:21:15.131Z,13.40
2022-11-27T12:24:04.975Z,12.05
2022-11-27T12:26:44.950Z,12.18
2022-11-27T12:29:27.785Z,12.35
2022-11-27T12:32:07.449Z,11.73
2022-11-27T12:34:41.175Z,14.27
2022-11-27T12:37:14.852Z,14.48
2022-11-27T12:40:23.623Z,16.85
2022-11-27T12:43:04.428Z,14.07
2022-11-27T12:45:45.486Z,17.73
2022-11-27T12:48:42.610Z,11.55
2022-11-27T12:51:21.032Z,11.20
2022-11-27T12:54:11.974Z,12.23
2022-11-27T12:56:44.878Z,13.10
2022-11-27T12:59:18.770Z,13.70
2022-11-27T13:01:52.548Z,12.00
2022-11-27T13:04:48.054Z,14.10
2022-11-27T13:07:40.204Z,14.65
2022-11-27T13:10:26.457Z,13.10
2022-11-27T13:13:03.247Z,13.90
2022-11-27T13:15:39.763Z,13.77
2022-11-27T13:18:38.278Z,15.52
2022-11-27T13:21:12.778Z,14.55
2022-11-27T13:23:40.478Z,12.23
2022-11-27T13:26:16.549Z,15.37
2022-11-27T13:28:57.502Z,15.98
2022-11-27T13:31:32.387Z,14.05
2022-11-27T13:34:04.781Z,14.20
2022-11-27T13:36:38.833Z,11.90
2022-11-27T13:39:07.203Z,13.43
2022-11-27T13:41:40.173Z,12.18
2022-11-27T13:44:26.051Z,12.90
2022-11-27T13:46:58.089Z,14.75
2022-11-27T13:49:28.991Z,16.52
2022-11-27T13:52:11.010Z,12.33
2022-11-27T13:54:39.194Z,15.23
2022-11-27T13:57:12.205Z,18.17
2022-11-27T13:59:39.826Z,17.45
2022-11-27T14:02:08.866Z,15.07
2022-11-27T14:04:54.360Z,17.03
2022-11-27T14:07:24.574Z,16.27
2022-11-27T14:10:05.995Z,12.40
2022-11-27T14:12:34.218Z,14.20
2022-11-27T14:15:06.739Z,13.27
2022-11-27T14:17:36.762Z,15.23
2022-11-27T14:20:20.626Z,13.57
2022-11-27T14:25:38.800Z,14.73
2022-11-27T14:28:26.057Z,14.30
2022-11-27T14:31:00.105Z,14.20
2022-11-27T14:33:59.535Z,14.65
2022-11-27T14:36:28.303Z,14.45
2022-11-27T14:38:55.772Z,13.25
2022-11-27T14:41:25.295Z,15.00
2022-11-27T14:44:04.694Z,14.67
2022-11-27T14:46:35.511Z,13.30
2022-11-27T14:49:03.669Z,13.30
2022-11-27T14:51:35.063Z,14.32
2022-11-27T14:54:11.902Z,13.30
2022-11-27T14:56:44.297Z,15.33
2022-11-27T14:59:20.642Z,19.33
2022-11-27T15:02:03.294Z,15.60
2022-11-27T15:04:39.958Z,15.48
2022-11-27T15:07:20.282Z,16.83
2022-11-27T15:09:51.523Z,15.57
2022-11-27T15:12:22.677Z,14.55
2022-11-27T15:15:27.496Z,12.00
2022-11-27T15:17:59.091Z,13.15
2022-11-27T15:20:41.113Z,16.98
2022-11-27T15:23:30.300Z,14.60
2022-11-27T15:26:14.927Z,15.70
2022-11-27T15:28:47.083Z,15.25
2022-11-27T15:31:32.792Z,17.35
2022-11-27T15:34:03.326Z,13.70
2022-11-27T15:36:47.599Z,13.83
2022-11-27T15:39:31.722Z,22.95
2022-11-27T15:42:01.818Z,14.65
2022-11-27T15:44:32.207Z,17.83
2022-11-27T15:47:02.715Z,16.37
2022-11-27T15:49:30.243Z,15.47
2022-11-27T15:51:58.187Z,14.75
2022-11-27T15:54:26.324Z,14.43
2022-11-27T15:56:53.730Z,20.00
2022-11-27T15:59:21.228Z,16.58
2022-11-27T16:01:49.802Z,15.03
2022-11-27T16:04:17.688Z,16.70
2022-11-27T16:06:45.682Z,16.92
2022-11-27T16:09:13.182Z,16.25
2022-11-27T16:11:40.915Z,16.48
2022-11-27T16:14:08.391Z,13.47
2022-11-27T16:16:35.944Z,15.70
2022-11-27T16:19:06.479Z,16.80
2022-11-27T16:21:35.725Z,16.60
2022-11-27T16:24:06.497Z,28.85
2022-11-27T16:26:36.791Z,15.93
2022-11-27T16:29:05.962Z,17.17
2022-11-27T16:31:33.890Z,15.88
2022-11-27T16:34:04.566Z,18.60
2022-11-27T16:36:32.568Z,17.20
2022-11-27T16:39:00.491Z,18.97
2022-11-27T16:41:28.692Z,17.20
2022-11-27T16:43:57.157Z,20.10
2022-11-27T16:46:28.181Z,16.40
2022-11-27T16:48:57.715Z,17.20
2022-11-27T16:51:32.337Z,23.43
2022-11-27T16:54:03.161Z,19.80
2022-11-27T16:56:33.252Z,496.10
2022-11-27T16:59:03.436Z,1027.22
2022-11-27T17:01:35.296Z,950.03
2022-11-27T17:04:07.185Z,1716.80
2022-11-27T17:06:37.846Z,1748.88
2022-11-27T17:09:07.600Z,374.67
2022-11-27T17:11:37.121Z,588.63
2022-11-27T17:14:07.645Z,994.53
2022-11-27T17:16:36.648Z,567.43
2022-11-27T17:19:04.849Z,466.48
2022-11-27T17:21:35.173Z,444.95
2022-11-27T17:24:14.478Z,439.05
2022-11-27T17:26:44.281Z,299.55
2022-11-27T17:29:14.040Z,299.30
2022-11-27T17:31:41.975Z,251.00
2022-11-27T17:34:14.874Z,193.02
2022-11-27T17:36:45.063Z,279.25
2022-11-27T17:39:14.722Z,36.15
2022-11-27T17:41:46.553Z,21.90
2022-11-27T17:44:14.379Z,20.88
2022-11-27T17:46:41.871Z,23.27
2022-11-27T17:49:10.885Z,22.45
2022-11-27T17:51:38.926Z,20.90
2022-11-27T17:54:07.024Z,22.03
2022-11-27T17:56:35.088Z,22.62
2022-11-27T17:59:03.449Z,23.05
2022-11-27T18:01:34.977Z,22.58
2022-11-27T18:04:07.005Z,21.27
2022-11-27T18:06:38.333Z,23.10
2022-11-27T18:09:09.180Z,26.83
2022-11-27T18:11:36.693Z,23.00
2022-11-27T18:14:05.237Z,23.42
2022-11-27T18:16:38.478Z,23.67
2022-11-27T18:19:08.502Z,23.27
2022-11-27T18:21:37.494Z,27.05
2022-11-27T18:24:23.535Z,25.20
2022-11-27T18:27:09.515Z,22.20
2022-11-27T18:29:39.568Z,30.50
2022-11-27T18:32:07.898Z,23.07
2022-11-27T18:34:35.598Z,28.35
2022-11-27T18:37:04.143Z,23.65
2022-11-27T18:39:32.180Z,25.35
2022-11-27T18:41:59.863Z,26.87
2022-11-27T18:44:27.678Z,24.23
2022-11-27T18:46:55.757Z,28.85
2022-11-27T18:49:23.766Z,29.25
2022-11-27T18:51:53.209Z,23.42
2022-11-27T18:54:21.855Z,26.90
2022-11-27T18:56:49.394Z,25.43
2022-11-27T18:59:17.410Z,30.62
2022-11-27T19:01:45.522Z,25.10
2022-11-27T19:04:13.185Z,26.90
2022-11-27T19:06:44.846Z,25.27
2022-11-27T19:09:13.908Z,28.73
2022-11-27T19:11:42.150Z,28.10
2022-11-27T19:14:10.086Z,27.13
2022-11-27T19:16:45.252Z,26.60
2022-11-27T19:22:07.931Z,27.07
2022-11-27T19:24:35.730Z,27.83
2022-11-27T19:27:03.482Z,31.27
2022-11-27T19:29:31.395Z,36.10
2022-11-27T19:32:01.157Z,32.58
2022-11-27T19:34:28.980Z,32.40
2022-11-27T19:36:58.416Z,30.20
2022-11-27T19:39:27.359Z,32.22
2022-11-27T19:41:55.203Z,36.45
2022-11-27T19:44:23.672Z,36.00
2022-11-27T19:46:51.307Z,34.80
2022-11-27T19:49:19.232Z,40.08
2022-11-27T19:51:47.687Z,41.30
2022-11-27T19:54:17.027Z,37.58
2022-11-27T19:56:44.606Z,40.33
2022-11-27T19:59:13.298Z,38.13
2022-11-27T20:01:41.497Z,35.22
2022-11-27T20:04:12.752Z,38.00
2022-11-27T20:06:41.097Z,38.85
2022-11-27T20:09:09.269Z,43.72
2022-11-27T20:11:36.841Z,43.20
2022-11-27T20:14:05.674Z,40.95
2022-11-27T20:16:35.136Z,46.03
2022-11-27T20:19:05.527Z,45.42
2022-11-27T20:21:34.081Z,41.90
2022-11-27T20:24:03.363Z,41.87
2022-11-27T20:26:30.910Z,42.45
2022-11-27T20:28:59.886Z,37.30
2022-11-27T20:31:35.847Z,39.50
2022-11-27T20:34:06.254Z,42.20
2022-11-27T20:36:37.735Z,35.50
2022-11-27T20:39:05.790Z,38.55
2022-11-27T20:41:34.025Z,40.53
2022-11-27T20:44:02.065Z,41.75
2022-11-27T20:46:31.609Z,38.67
2022-11-27T20:49:00.039Z,42.13
2022-11-27T20:51:33.203Z,40.63
2022-11-27T20:54:05.754Z,36.50
2022-11-27T20:56:33.969Z,35.47
2022-11-27T20:59:01.551Z,39.85
2022-11-27T21:01:34.300Z,42.03
2022-11-27T21:04:09.240Z,40.72
2022-11-27T21:06:43.543Z,38.97
2022-11-27T21:09:13.914Z,39.58
2022-11-27T21:11:43.031Z,45.20
2022-11-27T21:14:13.625Z,34.90
2022-11-27T21:16:46.128Z,39.80
2022-11-27T21:19:26.062Z,39.22
2022-11-27T21:21:55.557Z,37.28
2022-11-27T21:24:25.827Z,44.05
2022-11-27T21:26:53.357Z,40.20
2022-11-27T21:29:25.524Z,35.25
2022-11-27T21:31:54.072Z,33.80
2022-11-27T21:34:21.634Z,34.17
2022-11-27T21:36:49.837Z,38.20
2022-11-27T21:39:21.714Z,36.97
2022-11-27T21:41:50.862Z,37.78
2022-11-27T21:44:19.733Z,40.60
2022-11-27T21:46:48.659Z,35.38
2022-11-27T21:49:17.874Z,39.53
2022-11-27T21:51:46.184Z,36.57
2022-11-27T21:54:14.976Z,34.42
2022-11-27T21:56:42.491Z,38.13
2022-11-27T21:59:12.853Z,35.28
2022-11-27T22:01:40.428Z,37.38
2022-11-27T22:04:08.243Z,33.50
2022-11-27T22:06:39.346Z,35.92
2022-11-27T22:09:11.998Z,38.22
2022-11-27T22:11:44.553Z,40.60
2022-11-27T22:14:12.730Z,33.75
2022-11-27T22:16:45.428Z,35.53
2022-11-27T22:19:14.805Z,31.90
2022-11-27T22:21:43.975Z,37.17
2022-11-27T22:24:16.748Z,32.58
2022-11-27T22:26:48.336Z,32.67
2022-11-27T22:29:16.239Z,40.67
2022-11-27T22:31:43.701Z,35.42
2022-11-27T22:34:11.506Z,35.05
2022-11-27T22:36:39.359Z,34.47
2022-11-27T22:39:08.871Z,39.22
2022-11-27T22:41:38.806Z,31.80
2022-11-27T22:44:17.077Z,29.50
2022-11-27T22:46:45.642Z,32.35
2022-11-27T22:49:15.565Z,31.95
2022-11-27T22:51:44.954Z,27.37
2022-11-27T22:54:17.070Z,23.63
2022-11-27T22:56:45.908Z,31.52
2022-11-27T23:02:03.362Z,25.30
2022-11-27T23:04:31.303Z,25.67
2022-11-27T23:06:59.045Z,27.93
2022-11-27T23:09:26.717Z,29.90
2022-11-27T23:11:54.489Z,28.70
2022-11-27T23:14:21.953Z,25.02
2022-11-27T23:16:50.105Z,26.12
2022-11-27T23:19:17.940Z,23.33
2022-11-27T23:21:45.353Z,26.05
2022-11-27T23:24:15.580Z,24.85
2022-11-27T23:26:44.075Z,28.20
2022-11-27T23:29:11.823Z,29.83
2022-11-27T23:31:39.795Z,30.83
2022-11-27T23:34:13.166Z,31.52
2022-11-27T23:36:40.710Z,25.05
2022-11-27T23:39:11.322Z,28.05
2022-11-27T23:41:40.487Z,24.58
2022-11-27T23:44:08.326Z,23.37
2022-11-27T23:46:35.779Z,28.08
2022-11-27T23:49:03.274Z,23.00
2022-11-27T23:51:32.329Z,25.98
2022-11-27T23:54:01.169Z,24.70
2022-11-27T23:56:32.001Z,24.33
2022-11-27T23:59:00.593Z,32.75
